Time;durP1;ratioP1;P1;durP2;ratioP2;P2;SDS_P1;SDS_P2;PMS_P1;PMS_P2;Temp;Humidity;BMP_temperature;BMP_pressure;BME280_temperature;BME280_humidity;BME280_pressure;Samples;Min_cycle;Max_cycle;Signal;HPM_P1;HPM_P2
2022/11/09 00:01:18;;;;;;;0.10;0.10;;;;;;;5.93;91.16;99652.31;6203880;23;20027;-64
2022/11/09 00:03:44;;;;;;;0.20;0.20;;;;;;;5.95;90.97;99662.94;6201945;23;20481;-65
2022/11/09 00:06:11;;;;;;;0.10;0.10;;;;;;;5.92;90.86;99664.25;6214700;23;20024;-64
2022/11/09 00:08:38;;;;;;;0.10;0.10;;;;;;;5.93;91.28;99662.34;6176128;23;20020;-64
2022/11/09 00:11:05;;;;;;;0.10;0.10;;;;;;;5.98;91.08;99659.72;6179314;23;20024;-65
2022/11/09 00:13:34;;;;;;;0.10;0.10;;;;;;;5.93;90.87;99659.63;6216290;23;20071;-65
2022/11/09 00:16:01;;;;;;;0.10;0.10;;;;;;;5.98;90.87;99648.84;6215697;23;20020;-65
2022/11/09 00:18:29;;;;;;;0.10;0.10;;;;;;;5.97;90.88;99656.16;6206666;23;20664;-64
2022/11/09 00:20:55;;;;;;;0.10;0.10;;;;;;;5.97;91.20;99658.88;6216348;23;20020;-64
2022/11/09 00:23:21;;;;;;;0.10;0.10;;;;;;;6.01;91.24;99666.53;6216421;23;20021;-64
2022/11/09 00:25:47;;;;;;;0.10;0.10;;;;;;;5.99;91.07;99664.06;6216845;23;20044;-65
2022/11/09 00:28:14;;;;;;;0.10;0.10;;;;;;;6.01;91.45;99666.53;6187591;23;20071;-66
2022/11/09 00:30:40;;;;;;;0.10;0.10;;;;;;;6.02;91.52;99660.88;6177986;23;20025;-65
2022/11/09 00:33:07;;;;;;;0.10;0.10;;;;;;;5.95;91.58;99652.88;6213867;23;20020;-65
2022/11/09 00:35:37;;;;;;;0.10;0.10;;;;;;;6.06;91.56;99670.16;6206013;23;20491;-65
2022/11/09 00:38:03;;;;;;;0.10;0.10;;;;;;;6.05;91.60;99665.81;6186511;23;20400;-64
2022/11/09 00:40:30;;;;;;;0.10;0.10;;;;;;;6.09;91.44;99671.56;6155469;23;20368;-64
2022/11/09 00:42:56;;;;;;;0.10;0.10;;;;;;;6.07;91.75;99671.00;6204743;23;20020;-64
2022/11/09 00:45:22;;;;;;;0.10;0.10;;;;;;;6.08;91.99;99681.59;6218165;23;20372;-64
2022/11/09 00:47:48;;;;;;;0.10;0.10;;;;;;;6.09;91.79;99682.44;6187074;23;20099;-66
2022/11/09 00:50:15;;;;;;;0.10;0.10;;;;;;;6.07;91.84;99679.97;6205163;23;20025;-65
2022/11/09 00:52:42;;;;;;;0.10;0.10;;;;;;;6.09;91.90;99685.16;6217815;23;20499;-64
2022/11/09 00:55:08;;;;;;;0.10;0.10;;;;;;;6.06;92.17;99675.59;6213495;23;20020;-64
2022/11/09 00:57:34;;;;;;;0.10;0.10;;;;;;;6.01;92.07;99671.94;6173605;23;20436;-64
2022/11/09 01:00:01;;;;;;;0.10;0.10;;;;;;;6.10;92.10;99675.94;6154713;23;20107;-64
2022/11/09 01:02:28;;;;;;;0.10;0.10;;;;;;;6.13;92.13;99678.16;6187780;23;20298;-65
2022/11/09 01:04:56;;;;;;;0.10;0.10;;;;;;;6.16;91.93;99674.94;6179446;23;20255;-64
2022/11/09 01:07:22;;;;;;;0.10;0.10;;;;;;;6.19;91.84;99674.47;6212881;23;20043;-65
2022/11/09 01:09:49;;;;;;;0.10;0.10;;;;;;;6.23;91.62;99678.31;6186648;23;20028;-65
2022/11/09 01:12:15;;;;;;;0.10;0.10;;;;;;;6.21;91.42;99666.88;6213661;23;20416;-64
2022/11/09 01:14:42;;;;;;;0.10;0.10;;;;;;;6.24;91.51;99681.84;6153904;23;20029;-65
2022/11/09 01:17:08;;;;;;;0.10;0.10;;;;;;;6.24;91.56;99679.13;6187481;23;20413;-64
2022/11/09 01:19:34;;;;;;;0.10;0.10;;;;;;;6.24;91.41;99679.13;6216777;23;20020;-64
2022/11/09 01:22:00;;;;;;;0.10;0.10;;;;;;;6.24;91.58;99674.53;6205569;23;20021;-64
2022/11/09 01:24:27;;;;;;;0.10;0.10;;;;;;;6.26;91.58;99677.00;6207841;23;20028;-64
2022/11/09 01:26:55;;;;;;;0.10;0.10;;;;;;;6.28;91.52;99677.56;6147165;23;20028;-65
2022/11/09 01:29:21;;;;;;;0.10;0.10;;;;;;;6.29;91.52;99678.38;6215118;23;20108;-65
2022/11/09 01:31:47;;;;;;;0.10;0.10;;;;;;;6.27;91.45;99680.53;6213739;23;20047;-66
2022/11/09 01:34:16;;;;;;;0.10;0.10;;;;;;;6.27;91.28;99670.50;6174953;23;20388;-64
2022/11/09 01:36:42;;;;;;;0.10;0.10;;;;;;;6.32;91.32;99677.88;6205610;23;20424;-65
2022/11/09 01:39:08;;;;;;;0.10;0.10;;;;;;;6.31;91.34;99681.66;6201616;23;20028;-65
2022/11/09 01:41:37;;;;;;;0.10;0.10;;;;;;;6.31;91.46;99685.22;6175819;23;20021;-64
2022/11/09 01:44:10;;;;;;;0.10;0.10;;;;;;;6.33;91.52;99690.41;6205025;23;20447;-65
2022/11/09 01:46:45;;;;;;;0.10;0.10;;;;;;;6.32;91.36;99680.59;6204615;23;20031;-64
2022/11/09 01:49:19;;;;;;;0.10;0.10;;;;;;;6.36;91.51;99679.84;6205403;23;20329;-64
2022/11/09 01:51:52;;;;;;;0.10;0.10;;;;;;;6.36;91.25;99684.47;6204886;23;20048;-64
2022/11/09 01:54:22;;;;;;;0.10;0.10;;;;;;;6.39;91.52;99679.34;6214094;23;20276;-65
2022/11/09 01:56:51;;;;;;;0.10;0.10;;;;;;;6.40;91.32;99688.31;6186876;23;20024;-64
2022/11/09 01:59:23;;;;;;;0.10;0.10;;;;;;;6.37;91.20;99692.34;6185721;23;20055;-64
2022/11/09 02:01:51;;;;;;;0.10;0.10;;;;;;;6.39;91.30;99684.78;6187962;23;20028;-65
2022/11/09 02:04:21;;;;;;;0.10;0.10;;;;;;;6.39;91.16;99697.53;6188707;23;20451;-64
2022/11/09 02:06:49;;;;;;;0.10;0.10;;;;;;;6.39;91.40;99705.69;6202478;23;20020;-65
2022/11/09 02:09:25;;;;;;;0.10;0.10;;;;;;;6.39;91.31;99692.13;6178833;23;20025;-64
2022/11/09 02:11:51;;;;;;;0.10;0.10;;;;;;;6.41;91.44;99689.16;6177817;23;20475;-64
2022/11/09 02:14:21;;;;;;;0.10;0.10;;;;;;;6.45;91.34;99699.25;6214442;23;20490;-64
2022/11/09 02:16:48;;;;;;;0.10;0.10;;;;;;;6.47;91.42;99704.44;6180366;23;20044;-64
2022/11/09 02:19:14;;;;;;;0.10;0.10;;;;;;;6.47;91.52;99702.53;6188150;23;20020;-65
2022/11/09 02:21:42;;;;;;;0.10;0.10;;;;;;;6.46;91.40;99700.09;6205165;23;20079;-65
2022/11/09 02:24:08;;;;;;;0.10;0.10;;;;;;;6.46;91.48;99706.31;6178677;23;20032;-64
2022/11/09 02:26:39;;;;;;;0.10;0.10;;;;;;;6.47;91.50;99699.81;6219402;23;20024;-64
2022/11/09 02:29:08;;;;;;;0.10;0.10;;;;;;;6.46;91.66;99700.09;6185718;23;20569;-64
2022/11/09 02:31:38;;;;;;;0.10;0.10;;;;;;;6.49;91.73;99702.28;6181698;23;20024;-64
2022/11/09 02:34:07;;;;;;;0.10;0.10;;;;;;;6.48;91.99;99706.09;6150988;23;20031;-64
2022/11/09 02:36:34;;;;;;;0.10;0.10;;;;;;;6.43;92.25;99693.25;6217434;23;20029;-64
2022/11/09 02:39:03;;;;;;;0.10;0.10;;;;;;;6.45;92.61;99699.25;6151472;23;20055;-64
2022/11/09 02:41:31;;;;;;;0.10;0.10;;;;;;;6.48;92.91;99700.66;6190037;23;20028;-65
2022/11/09 02:44:00;;;;;;;0.10;0.10;;;;;;;6.43;93.13;99706.84;6214889;23;20020;-64
2022/11/09 02:46:31;;;;;;;0.10;0.10;;;;;;;6.41;93.56;99706.25;6187496;23;20247;-64
2022/11/09 02:48:58;;;;;;;0.10;0.10;;;;;;;6.38;93.61;99699.44;6189295;23;20099;-65
2022/11/09 02:51:24;;;;;;;0.17;0.17;;;;;;;6.37;93.74;99703.22;6204131;23;20031;-64
2022/11/09 02:53:50;;;;;;;0.10;0.10;;;;;;;6.36;93.68;99700.75;6156020;23;20082;-63
2022/11/09 02:56:18;;;;;;;0.03;0.03;;;;;;;6.38;93.51;99704.06;6189911;23;20025;-65
2022/11/09 02:58:44;;;;;;;0.10;0.10;;;;;;;6.39;93.82;99711.94;6189931;23;20021;-65
2022/11/09 03:01:10;;;;;;;0.10;0.10;;;;;;;6.41;93.51;99708.97;6188396;23;20020;-67
2022/11/09 03:03:36;;;;;;;0.10;0.10;;;;;;;6.27;93.34;99685.94;6203387;23;20020;-68
2022/11/09 03:06:03;;;;;;;0.10;0.10;;;;;;;6.47;93.24;99712.59;6157125;23;20031;-69
2022/11/09 03:08:29;;;;;;;0.10;0.10;;;;;;;6.50;93.07;99723.78;6180426;23;20104;-68
2022/11/09 03:10:57;;;;;;;0.10;0.10;;;;;;;6.51;92.79;99713.72;6156643;23;20044;-68
2022/11/09 03:13:25;;;;;;;0.10;0.10;;;;;;;6.52;92.61;99718.09;6190045;23;20020;-68
2022/11/09 03:15:51;;;;;;;0.10;0.10;;;;;;;6.53;92.46;99722.44;6189367;23;20024;-68
2022/11/09 03:18:17;;;;;;;0.10;0.10;;;;;;;6.53;92.45;99714.31;6187986;23;20043;-68
2022/11/09 03:20:43;;;;;;;0.10;0.10;;;;;;;6.53;92.55;99706.16;6192556;23;20016;-68
2022/11/09 03:23:12;;;;;;;0.10;0.10;;;;;;;6.58;92.44;99711.69;6207969;23;20021;-68
2022/11/09 03:25:39;;;;;;;0.10;0.10;;;;;;;6.59;92.32;99718.75;6188491;23;20025;-67
2022/11/09 03:28:06;;;;;;;0.10;0.10;;;;;;;6.60;92.15;99712.25;6181246;23;20452;-67
2022/11/09 03:30:35;;;;;;;0.10;0.10;;;;;;;6.60;92.08;99723.13;6179171;23;20021;-68
2022/11/09 03:33:03;;;;;;;0.10;0.10;;;;;;;6.65;91.71;99725.09;6203592;23;20071;-68
2022/11/09 03:35:29;;;;;;;0.10;0.10;;;;;;;6.65;91.73;99722.38;6181472;23;20048;-68
2022/11/09 03:37:55;;;;;;;0.10;0.10;;;;;;;6.64;91.83;99726.97;6178296;23;20475;-68
2022/11/09 03:40:23;;;;;;;0.10;0.10;;;;;;;6.67;91.75;99733.81;6181647;23;20071;-68
2022/11/09 03:42:50;;;;;;;0.10;0.10;;;;;;;6.70;91.65;99729.75;6157053;23;20027;-67
2022/11/09 03:45:16;;;;;;;0.10;0.10;;;;;;;6.70;91.51;99730.56;6182188;23;20020;-68
2022/11/09 03:47:45;;;;;;;0.10;0.10;;;;;;;6.68;91.55;99724.56;6179684;23;20116;-68
2022/11/09 03:50:12;;;;;;;0.10;0.10;;;;;;;6.74;91.84;99734.44;6218302;23;20032;-68
2022/11/09 03:52:38;;;;;;;0.10;0.10;;;;;;;6.72;91.69;99733.88;6205271;23;20055;-68
2022/11/09 03:55:05;;;;;;;0.10;0.10;;;;;;;6.73;91.68;99738.22;6203975;23;20028;-68
2022/11/09 03:57:31;;;;;;;0.10;0.10;;;;;;;6.77;91.77;99738.56;6208160;23;20020;-68
2022/11/09 03:59:57;;;;;;;0.10;0.10;;;;;;;6.77;91.64;99735.84;6215641;23;20028;-68
2022/11/09 04:02:23;;;;;;;0.05;0.05;;;;;;;6.79;91.53;99729.09;6215321;23;20386;-67
2022/11/09 04:04:50;;;;;;;0.10;0.10;;;;;;;6.81;91.44;99743.25;6202256;23;20064;-69
2022/11/09 04:07:16;;;;;;;0.10;0.10;;;;;;;6.82;91.51;99735.88;6215420;23;20017;-67
2022/11/09 04:09:42;;;;;;;0.10;0.10;;;;;;;6.82;91.46;99738.59;6180485;23;20024;-69
2022/11/09 04:12:08;;;;;;;0.10;0.10;;;;;;;6.86;91.26;99741.66;6206824;23;20082;-68
2022/11/09 04:14:34;;;;;;;0.10;0.10;;;;;;;6.86;91.31;99737.03;6215281;23;20051;-68
2022/11/09 04:17:00;;;;;;;0.10;0.10;;;;;;;6.87;91.21;99741.41;6191163;23;20020;-64
2022/11/09 04:19:26;;;;;;;0.10;0.10;;;;;;;6.92;91.42;99738.75;6203838;23;20048;-64
2022/11/09 04:21:53;;;;;;;0.10;0.10;;;;;;;6.96;91.08;99741.78;6203043;23;20336;-64
2022/11/09 04:24:19;;;;;;;0.10;0.10;;;;;;;6.98;91.31;99753.25;6215990;23;20048;-64
2022/11/09 04:26:46;;;;;;;0.10;0.10;;;;;;;7.00;90.95;99742.94;6214720;23;20028;-65
2022/11/09 04:29:12;;;;;;;0.10;0.10;;;;;;;7.07;90.95;99754.44;6218495;23;20021;-65
2022/11/09 04:31:38;;;;;;;0.10;0.10;;;;;;;7.11;90.36;99748.50;6216923;23;20024;-65
2022/11/09 04:34:04;;;;;;;0.10;0.10;;;;;;;7.12;90.31;99748.25;6153287;23;20025;-65
2022/11/09 04:36:30;;;;;;;0.10;0.10;;;;;;;7.10;90.59;99744.94;6181553;23;20020;-65
2022/11/09 04:38:58;;;;;;;0.10;0.10;;;;;;;7.14;90.16;99756.97;6208513;23;20416;-64
2022/11/09 04:41:24;;;;;;;0.25;0.10;;;;;;;7.13;90.38;99757.22;6210208;23;20020;-64
2022/11/09 04:43:49;;;;;;;0.10;0.10;;;;;;;7.12;90.18;99748.25;6209775;23;20515;-65
2022/11/09 04:46:15;;;;;;;0.10;0.10;;;;;;;7.14;90.07;99754.25;6198915;23;20051;-64
2022/11/09 04:48:42;;;;;;;0.10;0.10;;;;;;;7.17;90.10;99752.91;6184106;23;20016;-65
2022/11/09 04:51:09;;;;;;;0.10;0.10;;;;;;;7.15;90.13;99752.34;6198593;23;20024;-64
2022/11/09 04:53:36;;;;;;;0.10;0.10;;;;;;;7.14;89.92;99754.25;6179809;23;20505;-64
2022/11/09 04:56:05;;;;;;;0.10;0.10;;;;;;;7.15;90.17;99750.44;6207412;23;20058;-64
2022/11/09 04:58:31;;;;;;;0.20;0.20;;;;;;;7.14;90.18;99751.53;6211016;23;20020;-64
2022/11/09 05:01:02;;;;;;;0.10;0.10;;;;;;;7.17;89.84;99759.16;6202433;23;20067;-64
2022/11/09 05:03:28;;;;;;;0.10;0.10;;;;;;;7.15;90.15;99755.06;6178083;23;20045;-64
2022/11/09 05:05:54;;;;;;;0.10;0.10;;;;;;;7.18;90.15;99768.16;6201265;23;20104;-65
2022/11/09 05:08:20;;;;;;;0.10;0.10;;;;;;;7.19;90.12;99762.47;6207627;23;20104;-65
2022/11/09 05:10:46;;;;;;;0.10;0.10;;;;;;;7.23;90.02;99765.50;6210686;23;20287;-64
2022/11/09 05:13:14;;;;;;;0.10;0.10;;;;;;;7.24;89.69;99767.97;6174448;23;20025;-64
2022/11/09 05:15:40;;;;;;;0.10;0.10;;;;;;;7.21;89.75;99768.47;6194803;23;20024;-64
2022/11/09 05:18:07;;;;;;;0.10;0.10;;;;;;;7.24;89.71;99767.13;6185787;23;20025;-64
2022/11/09 05:20:34;;;;;;;0.10;0.10;;;;;;;7.22;89.56;99772.84;6176512;23;20089;-64
2022/11/09 05:25:46;;;;;;;0.10;0.10;;;;;;;7.26;89.44;99767.72;6168682;23;20033;-65
2022/11/09 05:28:14;;;;;;;0.00;0.00;;;;;;;7.30;89.48;99766.13;6204534;23;20028;-66
2022/11/09 05:30:39;;;;;;;;;;;;;;;7.35;89.39;99773.53;6199004;23;20067;-65
2022/11/09 05:33:05;;;;;;;0.10;0.10;;;;;;;7.34;89.03;99778.16;6154778;23;19920;-66
2022/11/09 05:35:32;;;;;;;0.10;0.10;;;;;;;7.40;88.86;99770.88;6208264;23;20021;-67
2022/11/09 05:37:58;;;;;;;0.10;0.10;;;;;;;7.41;88.70;99775.22;6175863;23;20028;-68
2022/11/09 05:40:24;;;;;;;0.10;0.10;;;;;;;7.41;88.69;99783.41;6184089;23;20016;-68
2022/11/09 05:42:50;;;;;;;0.10;0.10;;;;;;;7.44;88.75;99776.63;6205336;23;20075;-68
2022/11/09 05:45:18;;;;;;;0.10;0.10;;;;;;;7.47;88.64;99782.38;6178417;23;20024;-69
2022/11/09 05:47:44;;;;;;;0.10;0.10;;;;;;;7.52;88.17;99781.59;6214340;23;20329;-68
2022/11/09 05:50:12;;;;;;;0.10;0.10;;;;;;;7.55;88.29;99774.84;6179037;23;20032;-69
2022/11/09 05:52:38;;;;;;;0.10;0.10;;;;;;;7.63;88.11;99786.09;6191495;23;20463;-69
2022/11/09 05:55:06;;;;;;;0.10;0.10;;;;;;;7.73;87.46;99787.28;6208370;23;20085;-69
2022/11/09 05:57:32;;;;;;;0.10;0.10;;;;;;;7.82;87.12;99787.66;6215719;23;20024;-69
2022/11/09 05:59:58;;;;;;;0.10;0.10;;;;;;;7.88;86.36;99781.16;6217561;23;20024;-68
2022/11/09 06:02:29;;;;;;;0.10;0.10;;;;;;;7.90;86.25;99776.28;6216628;23;20036;-68
2022/11/09 06:04:55;;;;;;;0.10;0.10;;;;;;;7.89;85.90;99782.81;6207801;23;20044;-68
2022/11/09 06:07:24;;;;;;;0.10;0.10;;;;;;;7.86;85.81;99773.25;6219266;23;20079;-67
2022/11/09 06:09:50;;;;;;;0.10;0.10;;;;;;;7.86;86.12;99780.59;6191272;23;20538;-68
2022/11/09 06:12:16;;;;;;;0.10;0.10;;;;;;;7.86;86.17;99778.69;6156154;23;20036;-67
2022/11/09 06:14:42;;;;;;;0.10;0.10;;;;;;;7.80;86.04;99766.97;6179960;23;20028;-68
2022/11/09 06:17:08;;;;;;;0.10;0.10;;;;;;;7.89;85.81;99775.47;6216832;23;20025;-67
2022/11/09 06:19:35;;;;;;;0.10;0.10;;;;;;;7.89;85.76;99778.19;6203972;23;20028;-68
2022/11/09 06:22:01;;;;;;;0.10;0.10;;;;;;;7.90;85.78;99779.00;6216628;23;20027;-68
2022/11/09 06:24:27;;;;;;;0.10;0.10;;;;;;;7.86;86.11;99786.88;6205967;23;20083;-68
2022/11/09 06:26:53;;;;;;;0.10;0.10;;;;;;;7.85;86.06;99787.13;6205984;23;20568;-68
2022/11/09 06:29:19;;;;;;;0.10;0.10;;;;;;;7.85;85.89;99806.19;6216313;23;20459;-68
2022/11/09 06:31:47;;;;;;;0.10;0.10;;;;;;;7.74;86.22;99788.94;6205929;23;20529;-68
2022/11/09 06:34:13;;;;;;;0.10;0.10;;;;;;;7.80;86.15;99805.06;6219972;23;20032;-65
2022/11/09 06:36:41;;;;;;;0.10;0.10;;;;;;;7.79;86.53;99803.41;6205745;23;20539;-65
2022/11/09 06:39:07;;;;;;;;;;;;;;;7.75;86.59;99812.34;6207600;23;20029;-64
2022/11/09 06:41:34;;;;;;;0.10;0.10;;;;;;;7.71;86.95;99808.47;6217426;23;19923;-65
2022/11/09 06:44:00;;;;;;;0.10;0.10;;;;;;;7.65;87.36;99800.28;6207332;23;20313;-68
2022/11/09 06:46:26;;;;;;;0.10;0.10;;;;;;;7.65;87.46;99799.47;6206921;23;20020;-68
2022/11/09 06:48:52;;;;;;;0.10;0.10;;;;;;;7.68;87.98;99811.72;6206749;23;20025;-68
2022/11/09 06:51:18;;;;;;;0.10;0.10;;;;;;;7.71;87.92;99811.19;6178812;23;20020;-67
2022/11/09 06:53:46;;;;;;;0.10;0.10;;;;;;;7.76;88.00;99811.28;6168926;23;20029;-68
2022/11/09 06:56:11;;;;;;;0.10;0.10;;;;;;;7.80;87.96;99812.41;6216491;23;20025;-68
2022/11/09 06:58:38;;;;;;;0.10;0.10;;;;;;;7.80;88.12;99810.50;6205231;23;20075;-68
2022/11/09 07:01:08;;;;;;;0.10;0.10;;;;;;;7.84;87.95;99815.44;6207164;23;20079;-68
2022/11/09 07:03:34;;;;;;;0.10;0.10;;;;;;;7.82;88.36;99823.03;6177659;23;20031;-69
2022/11/09 07:06:04;;;;;;;0.10;0.10;;;;;;;7.79;88.46;99819.72;6178358;23;20027;-69
2022/11/09 07:08:31;;;;;;;0.10;0.10;;;;;;;7.80;88.59;99823.28;6179408;23;20363;-70
2022/11/09 07:11:03;;;;;;;0.10;0.10;;;;;;;7.84;88.69;99823.59;6215719;23;20475;-70
2022/11/09 07:13:29;;;;;;;0.10;0.10;;;;;;;7.87;88.78;99831.25;6206626;23;20056;-70
2022/11/09 07:15:55;;;;;;;0.10;0.10;;;;;;;7.89;88.80;99831.81;6219071;23;20020;-70
2022/11/09 07:18:21;;;;;;;0.10;0.10;;;;;;;7.91;88.87;99838.66;6176658;23;20103;-70
2022/11/09 07:20:47;;;;;;;0.10;0.10;;;;;;;7.95;88.67;99834.34;6155218;23;20491;-70
2022/11/09 07:23:13;;;;;;;0.10;0.10;;;;;;;8.00;88.68;99835.47;6205913;23;20082;-66
2022/11/09 07:25:39;;;;;;;0.10;0.10;;;;;;;7.99;88.30;99837.38;6218157;23;20048;-65
2022/11/09 07:28:09;;;;;;;0.10;0.10;;;;;;;8.00;88.47;99841.75;6218565;23;20028;-65
2022/11/09 07:30:36;;;;;;;0.35;0.10;;;;;;;8.03;88.85;99835.78;6132638;23;20051;-65
2022/11/09 07:33:03;;;;;;;0.10;0.10;;;;;;;8.08;88.35;99848.63;6214795;23;20025;-66
2022/11/09 07:35:29;;;;;;;0.10;0.10;;;;;;;8.07;88.18;99849.72;6180963;23;20032;-65
2022/11/09 07:37:59;;;;;;;0.10;0.10;;;;;;;8.08;88.30;99856.78;6209040;23;20033;-69
2022/11/09 07:40:25;;;;;;;0.10;0.10;;;;;;;8.08;88.47;99852.16;6167860;23;20020;-69
2022/11/09 07:42:51;;;;;;;0.10;0.10;;;;;;;8.07;88.21;99847.00;6204668;23;20032;-69
2022/11/09 07:45:21;;;;;;;0.10;0.10;;;;;;;8.11;88.30;99860.88;6207016;23;20096;-66
2022/11/09 07:47:47;;;;;;;0.10;0.10;;;;;;;8.05;88.39;99849.97;6208097;23;20020;-65
2022/11/09 07:50:14;;;;;;;0.10;0.10;;;;;;;8.07;88.39;99845.06;6219890;23;20408;-69
2022/11/09 07:52:40;;;;;;;0.10;0.10;;;;;;;8.08;88.45;99854.88;6207454;23;20466;-69
2022/11/09 07:55:07;;;;;;;0.10;0.10;;;;;;;8.06;88.34;99858.97;6215890;23;20029;-69
2022/11/09 07:57:33;;;;;;;0.10;0.10;;;;;;;8.01;88.75;99859.72;6205985;23;20115;-66
2022/11/09 07:59:59;;;;;;;0.10;0.10;;;;;;;8.00;89.27;99868.97;6179193;23;20025;-66
2022/11/09 08:02:27;;;;;;;0.10;0.10;;;;;;;8.02;88.96;99868.69;6214613;23;20027;-66
2022/11/09 08:04:53;;;;;;;0.10;0.10;;;;;;;8.04;89.01;99878.25;6176656;23;20591;-66
2022/11/09 08:07:22;;;;;;;0.10;0.10;;;;;;;7.97;89.11;99872.22;6214582;23;20021;-65
2022/11/09 08:09:48;;;;;;;0.10;0.10;;;;;;;7.97;89.46;99871.38;6189321;23;20052;-66
2022/11/09 08:12:14;;;;;;;0.10;0.10;;;;;;;7.98;89.71;99876.59;6217728;23;20135;-65
2022/11/09 08:14:40;;;;;;;0.10;0.10;;;;;;;8.01;89.54;99865.16;6215597;23;20024;-65
2022/11/09 08:17:06;;;;;;;0.10;0.10;;;;;;;7.98;89.59;99871.13;6179522;23;20107;-65
2022/11/09 08:19:33;;;;;;;0.22;0.10;;;;;;;7.99;89.74;99883.66;6218250;23;20028;-66
2022/11/09 08:21:59;;;;;;;0.35;0.10;;;;;;;8.04;89.84;99870.09;6216030;23;20080;-66
2022/11/09 08:24:25;;;;;;;0.10;0.10;;;;;;;8.08;89.57;99873.13;6217010;23;20028;-65
2022/11/09 08:26:51;;;;;;;0.10;0.10;;;;;;;8.12;89.56;99870.69;6206858;23;20024;-66
2022/11/09 08:29:17;;;;;;;0.10;0.10;;;;;;;8.14;89.47;99868.56;6190871;23;20040;-65
2022/11/09 08:31:43;;;;;;;0.10;0.10;;;;;;;8.14;89.34;99868.56;6190432;23;20359;-65
2022/11/09 08:34:11;;;;;;;0.15;0.15;;;;;;;8.15;89.39;99864.78;6216407;23;20166;-66
2022/11/09 08:36:38;;;;;;;;;;;;;;;8.17;89.36;99868.06;6153262;23;20030;-65
2022/11/09 08:39:04;;;;;;;0.10;0.10;;;;;;;8.26;89.01;99871.94;6187861;23;19919;-65
2022/11/09 08:41:30;;;;;;;0.10;0.10;;;;;;;8.32;88.76;99872.81;6206781;23;20017;-65
2022/11/09 08:43:56;;;;;;;0.10;0.10;;;;;;;8.23;88.53;99862.41;6153279;23;20479;-66
2022/11/09 08:46:22;;;;;;;0.10;0.10;;;;;;;8.28;88.75;99863.53;6218212;23;20071;-65
2022/11/09 08:48:48;;;;;;;0.10;0.10;;;;;;;8.28;88.83;99856.19;6207140;23;20074;-65
2022/11/09 08:51:14;;;;;;;0.10;0.10;;;;;;;8.29;89.04;99851.53;6215072;23;20016;-65
2022/11/09 08:53:41;;;;;;;0.10;0.10;;;;;;;8.30;89.08;99859.47;6188223;23;20064;-65
2022/11/09 08:56:08;;;;;;;0.10;0.10;;;;;;;8.30;89.09;99851.28;6189545;23;20024;-66
2022/11/09 08:58:35;;;;;;;0.10;0.10;;;;;;;8.29;89.19;99852.38;6131051;23;20083;-66
2022/11/09 09:01:06;;;;;;;0.10;0.10;;;;;;;8.38;89.18;99858.97;6180157;23;20349;-65
2022/11/09 09:03:32;;;;;;;0.10;0.10;;;;;;;8.45;88.72;99849.78;6191300;23;20020;-65
2022/11/09 09:06:02;;;;;;;0.10;0.10;;;;;;;8.43;88.51;99852.75;6216872;23;20016;-65
2022/11/09 09:08:28;;;;;;;0.10;0.10;;;;;;;8.47;88.77;99850.34;6178499;23;20372;-65
2022/11/09 09:10:55;;;;;;;0.10;0.10;;;;;;;8.50;88.51;99852.56;6213170;23;20027;-65
2022/11/09 09:13:21;;;;;;;0.10;0.10;;;;;;;8.43;88.32;99855.50;6177205;23;20025;-65
2022/11/09 09:15:47;;;;;;;0.10;0.10;;;;;;;8.41;88.51;99841.31;6205993;23;20025;-65
2022/11/09 09:18:13;;;;;;;0.10;0.10;;;;;;;8.41;88.50;99840.47;6215503;23;20048;-65
2022/11/09 09:20:39;;;;;;;0.10;0.10;;;;;;;8.43;88.49;99843.75;6190420;23;20024;-66
2022/11/09 09:23:05;;;;;;;0.10;0.10;;;;;;;8.43;88.29;99857.38;6205982;23;20020;-65
2022/11/09 09:25:32;;;;;;;0.10;0.10;;;;;;;8.35;88.50;99839.59;6218426;23;20368;-65
2022/11/09 09:27:59;;;;;;;0.10;0.10;;;;;;;8.35;88.58;99859.50;6208937;23;20074;-70
2022/11/09 09:30:25;;;;;;;0.10;0.10;;;;;;;8.32;88.64;99851.84;6218519;23;20020;-69
2022/11/09 09:32:56;;;;;;;0.10;0.10;;;;;;;8.33;88.81;99847.22;6180149;23;20119;-70
2022/11/09 09:35:22;;;;;;;0.10;0.10;;;;;;;8.37;88.56;99854.63;6217870;23;20074;-65
2022/11/09 09:37:48;;;;;;;0.10;0.10;;;;;;;8.36;88.39;99855.69;6155157;23;20028;-69
2022/11/09 09:40:24;;;;;;;0.10;0.10;;;;;;;8.37;88.51;99856.53;6216665;23;20016;-65
2022/11/09 09:42:53;;;;;;;0.10;0.10;;;;;;;8.33;88.73;99845.31;6179890;23;20230;-69
2022/11/09 09:45:23;;;;;;;0.10;0.10;;;;;;;8.37;88.77;99849.16;6218295;23;20542;-70
2022/11/09 09:47:55;;;;;;;0.10;0.10;;;;;;;8.46;88.55;99857.69;6190643;23;20087;-70
2022/11/09 09:50:25;;;;;;;0.10;0.10;;;;;;;8.47;88.25;99862.06;6205647;23;20074;-70
2022/11/09 09:52:56;;;;;;;0.10;0.10;;;;;;;8.45;88.22;99857.97;6186705;23;20086;-70
2022/11/09 09:55:26;;;;;;;0.10;0.10;;;;;;;8.42;88.49;99856.56;6204288;23;20024;-70
2022/11/09 09:57:55;;;;;;;0.10;0.10;;;;;;;8.37;88.74;99853.81;6155264;23;20359;-70
2022/11/09 10:00:25;;;;;;;0.10;0.10;;;;;;;8.38;88.95;99855.44;6214633;23;20028;-70
2022/11/09 10:02:52;;;;;;;0.10;0.10;;;;;;;8.39;89.14;99846.19;6188199;23;20107;-70
2022/11/09 10:05:19;;;;;;;0.10;0.10;;;;;;;8.43;89.08;99852.75;6208181;23;20520;-70
2022/11/09 10:07:50;;;;;;;;;;;;;;;8.43;88.88;99857.38;6189038;23;20021;-70
2022/11/09 10:10:32;;;;;;;0.10;0.10;;;;;;;8.35;89.17;99848.59;6215018;23;19924;-69
2022/11/09 10:13:35;;;;;;;0.10;0.10;;;;;;;8.34;89.47;99857.03;6201808;23;20231;-70
2022/11/09 10:16:10;;;;;;;0.10;0.10;;;;;;;8.35;89.44;99864.13;6205025;23;20023;-70
2022/11/09 10:18:52;;;;;;;0.10;0.10;;;;;;;8.36;89.54;99858.41;6189727;23;20074;-70
2022/11/09 10:21:30;;;;;;;0.10;0.10;;;;;;;8.33;89.83;99871.72;6179412;23;20032;-70
2022/11/09 10:24:09;;;;;;;0.10;0.10;;;;;;;8.25;90.39;99864.03;6214766;23;20020;-65
2022/11/09 10:26:40;;;;;;;0.10;0.10;;;;;;;8.24;90.60;99857.75;6189942;23;20021;-65
2022/11/09 10:29:19;;;;;;;0.10;0.10;;;;;;;8.25;90.68;99851.22;6178125;23;20495;-70
2022/11/09 10:31:50;;;;;;;0.10;0.10;;;;;;;8.28;91.27;99864.34;6216025;23;20023;-65
2022/11/09 10:34:19;;;;;;;0.10;0.10;;;;;;;8.31;91.01;99849.38;6214734;23;20024;-65
2022/11/09 10:36:52;;;;;;;0.10;0.10;;;;;;;8.33;91.02;99850.78;6214926;23;20056;-65
2022/11/09 10:39:21;;;;;;;0.10;0.10;;;;;;;8.33;91.33;99849.94;6206339;23;20023;-66
2022/11/09 10:42:10;;;;;;;0.10;0.10;;;;;;;8.33;91.42;99845.31;6206178;23;20107;-70
2022/11/09 10:44:56;;;;;;;0.10;0.10;;;;;;;8.32;91.24;99851.00;6194725;23;20021;-70
2022/11/09 10:47:50;;;;;;;0.10;0.10;;;;;;;8.30;91.10;99847.72;6207358;23;20317;-66
2022/11/09 10:50:37;;;;;;;0.10;0.10;;;;;;;8.26;91.43;99863.75;6216493;23;20016;-69
2022/11/09 10:53:23;;;;;;;;;;;;;;;8.24;91.41;99849.59;6185109;23;20078;-69
2022/11/09 10:56:13;;;;;;;0.10;0.10;;;;;;;8.18;91.76;99853.34;6185135;23;19920;-69
2022/11/09 10:58:57;;;;;;;0.10;0.10;;;;;;;8.15;91.89;99859.31;6218366;23;20475;-69
2022/11/09 11:01:42;;;;;;;0.10;0.10;;;;;;;8.16;92.15;99850.88;6206877;23;20491;-69
2022/11/09 11:04:28;;;;;;;0.10;0.10;;;;;;;8.19;92.13;99860.44;6219395;23;20460;-66
2022/11/09 11:07:14;;;;;;;0.10;0.10;;;;;;;8.22;92.23;99857.19;6198826;23;20126;-66
2022/11/09 11:10:09;;;;;;;0.10;0.10;;;;;;;8.19;92.34;99863.16;6210158;23;20270;-67
2022/11/09 11:13:19;;;;;;;0.10;0.10;;;;;;;8.17;92.34;99857.16;6209202;23;20031;-67
2022/11/09 11:16:14;;;;;;;0.20;0.20;;;;;;;8.19;92.62;99877.59;6202587;23;20096;-67
2022/11/09 11:18:59;;;;;;;0.10;0.10;;;;;;;8.22;92.52;99868.94;6209342;23;20094;-66
2022/11/09 11:21:45;;;;;;;0.20;0.10;;;;;;;8.20;92.50;99854.75;6211012;23;20067;-64
2022/11/09 11:24:40;;;;;;;0.10;0.10;;;;;;;8.19;92.51;99857.72;6218079;23;20077;-65
2022/11/09 11:27:34;;;;;;;0.10;0.10;;;;;;;8.17;92.70;99841.63;6220596;23;20048;-68
2022/11/09 11:30:26;;;;;;;0.10;0.10;;;;;;;8.20;92.96;99856.63;6211625;23;20025;-67
2022/11/09 11:33:14;;;;;;;0.10;0.10;;;;;;;8.17;93.07;99855.25;6207304;23;20107;-67
2022/11/09 11:36:07;;;;;;;0.10;0.10;;;;;;;8.22;93.57;99843.56;6217839;23;20067;-67
2022/11/09 11:39:01;;;;;;;0.10;0.10;;;;;;;8.26;92.95;99850.16;6182277;23;20016;-66
2022/11/09 11:42:08;;;;;;;0.10;0.10;;;;;;;8.26;92.70;99852.88;6210406;23;20025;-67
2022/11/09 11:45:12;;;;;;;0.10;0.10;;;;;;;8.26;93.03;99863.75;6182609;23;20024;-67
2022/11/09 11:48:12;;;;;;;0.10;0.10;;;;;;;8.25;92.82;99853.16;6182711;23;20074;-67
2022/11/09 11:51:05;;;;;;;0.10;0.10;;;;;;;8.31;93.13;99852.09;6220322;23;20360;-67
2022/11/09 11:54:04;;;;;;;0.10;0.10;;;;;;;8.30;92.80;99847.72;6207514;23;20034;-67
2022/11/09 11:56:58;;;;;;;0.10;0.10;;;;;;;8.28;92.87;99856.19;6217962;23;20048;-67
2022/11/09 11:59:55;;;;;;;0.10;0.10;;;;;;;8.26;92.91;99855.59;6206816;23;20023;-67